Date,TemperatureHighF,TemperatureAvgF,TemperatureLowF,DewpointHighF,DewpointAvgF,DewpointLowF,HumidityHigh,HumidityAvg,HumidityLow,PressureMaxIn,PressureMinIn,WindSpeedMaxMPH,WindSpeedAvgMPH,GustSpeedMaxMPH,PrecipitationSumIn
2013-1-1,51.6,47.5,43.3,51.1,44.1,33.5,98,89,61,29.94,29.77,5,2,0,0.32
2013-1-2,51.4,45.8,40.5,50.9,45.3,40.0,98,98,98,30.03,29.74,7,2,0,0.33
2013-1-3,47.5,40.7,33.1,44.6,39.6,32.6,98,96,80,30.10,29.98,3,1,0,0.00
2013-1-4,51.3,39.4,28.6,32.9,30.2,26.1,98,73,43,30.15,30.03,6,2,0,0.00
2013-1-5,50.7,38.5,27.5,34.3,30.1,26.3,98,73,49,30.23,30.11,5,1,0,0.00
2013-1-6,50.4,42.8,36.7,47.4,41.1,34.7,98,94,78,30.08,29.90,3,1,0,0.01
2013-1-7,53.1,40.3,32.2,39.4,36.1,31.7,98,87,57,30.27,30.02,6,1,0,0.00
2013-1-8,58.6,44.3,31.8,48.4,41.2,31.3,98,90,61,30.31,30.21,3,0,0,0.00
2013-1-9,68.2,52.0,39.0,59.0,49.4,38.5,98,92,65,30.30,30.19,4,0,0,0.00
2013-1-10,64.6,55.3,48.7,55.0,51.2,44.7,98,87,60,30.38,30.26,5,1,0,0.00
2013-1-11,54.7,48.9,42.4,54.1,46.9,39.1,98,93,70,30.28,29.99,4,1,0,0.38
2013-1-12,72.5,58.7,50.7,71.9,58.1,50.2,98,98,98,30.02,29.93,4,0,0,0.00
2013-1-13,76.3,63.4,53.8,72.3,62.1,53.2,98,96,77,29.99,29.88,6,1,0,0.00
2013-1-14,72.1,64.6,58.3,71.5,64.0,57.7,98,98,98,29.99,29.92,5,1,0,0.00
2013-1-15,64.2,48.5,46.4,63.6,48.0,45.9,98,98,98,30.07,29.89,9,3,0,0.01
2013-1-16,52.5,48.5,45.5,52.0,48.0,45.0,98,98,98,29.91,29.81,6,1,0,0.21
2013-1-17,52.7,47.8,34.0,52.2,47.3,33.5,98,98,98,29.99,29.71,11,3,0,1.27
2013-1-18,47.1,36.9,28.8,41.0,32.7,28.3,98,86,54,30.37,29.98,8,2,0,0.28
2013-1-19,54.9,38.8,26.2,41.4,32.6,25.7,98,81,46,30.35,30.00,5,1,0,0.00
2013-1-20,64.4,49.6,39.9,44.9,39.7,33.4,98,71,42,29.98,29.82,6,2,0,0.00
2013-1-21,60.1,46.7,34.0,38.1,34.4,23.5,98,66,42,29.92,29.70,5,2,0,0.00
2013-1-22,40.5,33.6,25.9,24.4,10.0,-55.1,55,40,1,30.12,29.79,8,3,0,0.00
2013-1-23,41.2,29.0,17.6,22.4,13.5,5.3,86,54,33,30.21,29.89,8,1,0,0.00
2013-1-24,37.6,31.8,24.3,32.4,19.1,7.5,98,62,31,30.35,29.80,11,3,0,0.00
2013-1-25,27.9,24.8,19.9,27.4,17.3,6.5,98,75,46,30.38,29.94,4,1,0,0.06
2013-1-26,42.6,31.5,26.6,38.6,30.5,26.1,98,96,77,30.24,29.92,5,1,0,0.35
2013-1-27,43.2,32.7,24.1,35.2,30.3,23.6,98,92,68,30.43,30.23,6,1,0,0.01
2013-1-28,52.3,43.5,32.7,51.8,42.4,32.2,98,96,80,30.35,30.07,3,1,0,0.01
2013-1-29,73.2,58.4,47.1,68.7,56.9,46.6,98,95,75,30.08,29.91,8,2,0,0.00
2013-1-30,72.0,66.7,58.1,71.4,66.1,57.5,98,98,98,29.91,29.22,11,4,0,0.30
2013-1-31,62.4,46.3,34.3,61.8,35.9,26.5,98,70,42,29.85,29.30,14,4,0,0.21
2013-2-1,40.6,35.2,25.3,34.9,18.7,6.4,90,54,28,30.22,29.73,12,3,0,0.01
2013-2-2,44.4,33.6,18.0,42.5,18.4,9.9,98,56,34,30.25,29.86,7,2,0,0.00
2013-2-3,49.8,42.1,32.5,43.0,35.6,30.6,98,80,53,29.85,29.68,7,2,0,0.00
2013-2-4,48.9,38.0,25.7,34.7,29.4,25.2,98,74,47,29.98,29.83,4,1,0,0.00
2013-2-5,62.6,47.8,38.5,43.4,40.3,35.2,98,78,45,29.84,29.71,10,2,0,0.00
2013-2-6,63.5,47.7,33.8,44.1,35.2,28.0,98,67,26,30.12,29.81,6,2,0,0.00
2013-2-7,50.2,43.3,37.2,49.7,42.8,36.7,98,98,96,30.16,29.81,8,4,0,0.36
2013-2-8,57.4,46.5,40.3,56.8,45.0,34.7,98,95,76,29.88,29.64,8,4,0,0.69
2013-2-9,54.1,40.5,29.8,36.7,29.1,23.3,98,68,32,30.18,29.88,8,2,0,0.00
2013-2-10,53.8,41.0,26.8,47.0,29.7,25.3,98,68,35,30.33,30.05,5,2,0,0.04
2013-2-11,63.0,57.2,44.8,62.4,56.6,44.3,98,98,98,30.04,29.76,8,2,0,0.08
2013-2-12,61.5,53.6,46.2,56.4,42.6,35.2,98,69,39,29.93,29.75,5,1,0,0.00
2013-2-13,49.8,46.7,42.8,48.2,46.1,42.3,98,98,79,29.78,29.46,4,1,0,0.11
2013-2-14,52.3,41.8,32.0,43.4,38.0,31.5,98,88,63,29.90,29.67,7,1,0,0.00
2013-2-15,62.4,45.4,31.3,49.0,38.1,30.8,98,80,43,29.92,29.76,4,1,0,0.00
2013-2-16,46.4,37.1,30.4,45.9,36.5,29.9,98,98,92,29.80,29.65,8,2,0,0.46
2013-2-17,38.1,29.7,23.4,29.9,19.1,13.8,98,68,39,30.12,29.74,12,2,0,0.11
2013-2-18,52.5,35.2,16.7,34.3,22.9,14.7,98,66,35,30.25,30.09,4,1,0,0.18
2013-2-19,52.7,43.8,33.1,52.2,43.3,32.6,98,98,94,30.09,29.69,6,2,0,0.19
2013-2-20,53.1,41.4,30.2,40.9,26.3,17.7,98,60,25,29.97,29.79,8,2,0,0.00
2013-2-21,56.3,41.2,24.8,27.3,24.0,20.1,98,54,26,30.09,29.95,5,2,0,0.00
2013-2-22,43.0,36.9,32.5,39.8,35.3,26.7,98,95,53,30.19,29.96,5,2,0,0.53
2013-2-23,44.8,41.2,37.0,44.3,40.7,36.5,98,98,98,29.94,29.64,5,1,0,1.04
2013-2-24,63.5,50.5,42.3,56.0,42.8,33.0,98,78,40,29.87,29.63,5,2,0,0.14
2013-2-25,44.1,38.7,33.6,34.7,29.6,25.1,91,70,55,30.07,29.88,9,3,0,0.00
2013-2-26,61.2,48.0,36.0,60.6,46.8,31.4,98,96,80,29.97,29.38,11,3,0,1.17
2013-2-27,61.3,49.7,43.0,51.5,45.7,42.5,98,88,57,29.62,29.45,6,2,0,0.00
2013-2-28,49.8,42.7,35.2,44.1,37.1,32.4,98,82,52,29.68,29.53,5,2,0,0.00
2013-3-1,50.4,40.4,29.3,38.9,33.8,28.8,98,79,54,29.74,29.67,6,2,0,0.00
2013-3-2,49.8,38.6,27.7,37.8,30.5,24.0,98,75,53,29.75,29.63,6,2,0,0.00
2013-3-3,47.3,35.8,27.0,29.0,25.1,20.9,98,67,47,29.81,29.67,7,2,0,0.00
2013-3-4,50.5,36.9,24.8,24.0,21.2,18.3,86,56,31,29.95,29.81,8,2,0,0.00
2013-3-5,52.7,44.0,35.6,48.2,37.5,24.0,98,80,51,29.92,29.39,6,1,0,0.38
2013-3-6,49.6,43.2,37.2,49.1,37.9,31.9,98,83,62,29.85,29.33,11,4,0,0.01
2013-3-7,52.5,42.2,33.1,38.3,34.8,30.3,98,77,55,30.07,29.85,8,2,0,0.00
2013-3-8,56.5,43.8,31.1,34.7,31.7,29.8,98,66,38,30.11,29.98,11,3,0,0.00
2013-3-9,63.9,46.3,31.8,39.1,33.8,30.1,98,66,31,30.17,30.07,5,1,0,0.00
2013-3-10,69.1,50.9,34.0,40.1,31.2,7.9,98,57,9,30.16,30.04,5,1,0,0.00
2013-3-11,71.1,56.5,40.5,65.1,51.7,29.1,98,86,47,30.08,29.77,6,2,0,0.00
2013-3-12,72.3,61.9,50.7,71.7,58.6,39.0,98,90,59,29.78,29.58,8,3,0,0.42
2013-3-13,58.8,47.3,34.2,43.1,33.2,24.0,98,61,36,29.96,29.77,11,3,0,0.00
2013-3-14,54.5,40.7,29.1,28.1,23.6,20.5,78,51,34,30.08,29.93,10,3,0,0.00
2013-3-15,63.0,47.5,29.8,41.2,32.6,21.7,98,58,39,30.02,29.74,9,2,0,0.00
2013-3-16,79.0,62.7,48.9,61.8,52.9,41.5,98,74,44,29.74,29.49,5,2,0,0.00
2013-3-17,62.4,53.5,42.1,60.6,52.8,41.6,98,98,87,30.00,29.66,8,3,0,0.00
2013-3-18,44.8,41.8,38.8,44.3,41.3,38.3,98,98,98,30.03,29.70,5,2,0,0.36
2013-3-19,68.2,53.0,42.3,57.7,39.2,16.4,98,68,24,29.85,29.65,7,2,0,0.01
2013-3-20,56.1,47.2,36.9,28.4,18.3,11.2,66,33,22,29.96,29.61,6,2,0,0.00
2013-3-21,48.6,40.6,30.6,39.8,25.5,14.9,98,58,33,29.81,29.56,8,3,0,0.00
2013-3-22,54.0,37.7,23.2,27.4,20.0,15.4,96,52,27,29.92,29.80,6,2,0,0.00
2013-3-23,56.1,45.7,37.4,41.4,32.4,25.8,98,62,40,29.89,29.74,4,1,0,0.00
2013-3-24,43.5,39.3,35.4,43.0,38.8,34.9,98,98,98,29.77,29.39,10,3,0,0.86
2013-3-25,49.8,41.3,36.1,46.1,35.1,29.5,98,81,51,29.65,29.38,10,2,0,0.00
2013-3-26,51.4,42.4,32.2,39.4,34.5,31.7,98,76,54,29.95,29.65,9,3,0,0.00
2013-3-27,54.0,42.6,33.4,37.8,31.7,26.5,98,69,40,30.06,29.95,8,3,0,0.00
2013-3-28,57.4,44.3,31.3,37.8,31.6,29.0,98,65,37,30.13,29.98,9,2,0,0.00
2013-3-29,60.3,45.6,31.5,38.7,32.9,29.4,98,66,33,30.17,30.01,6,1,0,0.00
2013-3-30,68.0,54.5,41.4,54.8,44.3,33.3,98,73,35,30.08,29.92,5,1,0,0.00
2013-3-31,69.4,57.7,48.9,68.8,57.1,48.4,98,98,98,29.94,29.64,5,2,0,0.46
2013-4-1,72.9,61.6,54.3,63.9,52.5,44.9,98,76,38,29.78,29.64,7,2,0,0.03
2013-4-2,63.0,50.8,39.0,46.1,36.4,29.6,98,62,32,30.00,29.80,7,2,0,0.00
2013-4-3,61.2,50.3,42.6,34.6,26.2,21.4,62,40,24,30.14,29.97,6,2,0,0.00
2013-4-4,48.9,43.2,40.1,45.7,38.4,27.6,98,85,50,30.19,29.73,8,3,0,1.18
2013-4-5,64.4,50.1,40.6,62.8,49.3,40.1,98,97,84,29.85,29.70,7,2,0,0.04
2013-4-6,68.5,54.7,43.3,50.4,38.9,27.0,98,60,31,30.11,29.85,7,2,0,0.00
2013-4-7,73.6,56.4,36.0,58.0,47.7,35.5,98,77,44,30.13,29.94,6,2,0,0.00
2013-4-8,80.4,65.6,53.1,76.2,61.2,52.5,98,88,55,30.02,29.88,7,2,0,0.00
2013-4-9,86.0,71.0,58.3,78.0,66.1,57.7,98,87,53,30.02,29.88,5,2,0,0.00
2013-4-10,91.2,73.8,61.0,81.6,69.4,60.4,98,88,52,29.94,29.77,6,2,0,0.00
2013-4-11,82.0,71.5,61.2,81.4,70.7,60.6,98,97,86,29.83,29.62,8,3,0,0.00
2013-4-12,81.9,72.2,66.9,81.3,71.5,62.6,98,98,86,29.64,29.43,9,3,0,1.21
2013-4-13,77.2,64.7,52.5,63.4,53.4,45.9,98,72,36,29.82,29.59,5,2,0,0.00
2013-4-14,81.9,65.7,46.9,67.8,51.1,42.4,98,68,26,29.94,29.83,4,1,0,0.00
2013-4-15,73.2,66.2,59.9,72.6,65.6,59.3,98,98,98,30.03,29.84,5,2,0,0.02
2013-4-16,78.1,66.4,58.1,77.5,65.8,57.5,98,98,98,30.14,30.02,5,1,0,0.00
2013-4-17,83.3,70.8,59.0,82.7,70.2,58.4,98,98,98,30.06,29.93,4,1,0,0.00
2013-4-18,80.8,70.3,60.1,79.5,69.7,59.5,98,98,91,30.03,29.86,6,2,0,0.00
2013-4-19,84.6,71.9,65.8,84.0,71.3,65.2,98,98,98,29.88,29.54,7,2,0,0.72
2013-4-20,66.4,56.4,47.3,65.8,48.5,40.6,98,79,40,30.10,29.65,6,2,0,0.08
2013-4-21,64.2,52.5,42.1,55.4,47.4,41.6,98,85,55,30.32,30.10,10,3,0,0.00
2013-4-22,62.8,50.6,38.1,58.0,47.3,37.6,98,90,56,30.31,30.10,8,3,0,0.00
2013-4-23,70.0,55.7,47.5,67.2,54.7,47.0,98,97,78,30.11,29.96,7,2,0,0.00
2013-4-24,78.1,63.9,49.3,72.7,61.0,48.8,98,91,66,30.00,29.80,6,2,0,0.00
2013-4-25,73.8,62.0,51.4,62.5,56.5,50.4,98,85,47,30.10,29.85,5,1,0,0.00
2013-4-26,74.5,61.3,50.4,59.7,49.3,39.1,98,72,30,30.26,30.10,5,1,0,0.00
2013-4-27,75.6,64.0,52.5,65.2,55.0,48.0,98,77,40,30.23,30.09,4,0,0,0.00
2013-4-28,64.0,58.8,55.8,63.4,58.2,55.2,98,98,98,30.10,29.93,3,1,0,1.12
2013-4-29,77.4,64.7,56.5,75.5,64.1,55.9,98,98,94,29.94,29.79,2,0,0,1.49
2013-4-30,70.0,62.7,56.7,69.4,62.1,56.1,98,98,98,30.00,29.83,4,1,0,0.01
2013-5-1,62.8,59.5,56.8,62.2,58.9,56.2,98,98,98,30.15,29.99,6,3,0,0.00
2013-5-2,66.4,60.1,55.6,65.8,59.5,55.0,98,98,98,30.17,30.09,7,2,0,0.00
2013-5-3,70.7,59.5,50.4,64.2,55.1,49.3,98,87,62,30.11,30.00,8,3,0,0.00
2013-5-4,67.1,56.7,49.8,60.4,54.6,49.3,98,93,75,30.04,29.90,10,4,0,0.00
2013-5-5,60.6,56.2,50.2,60.0,55.6,49.7,98,98,98,29.92,29.80,9,4,0,0.00
2013-5-6,72.0,62.1,57.2,71.4,61.5,56.6,98,98,98,29.83,29.65,7,2,0,1.53
2013-5-7,73.8,60.6,51.4,67.8,56.6,50.9,98,88,53,29.78,29.68,4,1,0,0.01
2013-5-8,74.1,63.1,53.2,67.2,60.1,52.6,98,91,71,29.85,29.76,5,1,0,0.42
2013-5-9,85.8,67.9,54.5,69.1,62.1,53.9,98,84,48,29.90,29.81,4,1,0,0.01
2013-5-10,87.4,73.0,57.6,71.4,65.4,57.0,98,80,51,29.90,29.76,6,1,0,0.02
2013-5-11,83.7,73.9,67.3,74.1,70.0,66.7,98,89,62,29.79,29.61,7,2,0,0.00
2013-5-12,76.8,67.2,56.5,69.2,56.7,40.9,98,72,41,29.85,29.61,6,2,0,0.00
2013-5-13,71.8,58.1,46.4,47.9,43.6,39.4,98,62,32,30.01,29.86,7,1,0,0.00
2013-5-14,73.0,59.0,41.7,50.0,45.8,41.2,98,65,41,30.10,29.91,5,1,0,0.00
2013-5-15,89.6,71.0,55.8,72.4,62.5,48.5,98,77,50,29.92,29.73,5,1,0,0.00
2013-5-16,86.4,76.1,66.2,73.0,68.9,64.5,98,81,51,29.81,29.73,6,2,0,0.00
2013-5-17,89.6,76.5,63.5,77.4,69.0,62.9,98,81,48,29.91,29.81,7,0,0,0.00
2013-5-18,81.7,72.1,64.2,80.0,71.2,63.6,98,97,81,29.99,29.90,4,1,0,0.83
2013-5-19,80.1,71.2,67.1,79.5,70.6,66.5,98,98,98,29.99,29.88,4,1,0,0.61
2013-5-20,77.2,71.5,68.4,76.6,70.9,67.8,98,98,98,29.95,29.86,2,0,0,1.13
2013-5-21,86.5,74.6,69.3,82.9,73.7,68.7,98,97,86,29.89,29.78,5,1,0,0.00
2013-5-22,87.1,75.6,68.7,78.8,73.3,68.1,98,93,67,29.87,29.74,4,1,0,0.00
2013-5-23,84.9,74.8,69.6,79.3,73.2,69.0,98,95,78,29.79,29.64,8,1,0,0.00
2013-5-24,74.5,66.4,53.6,70.2,59.0,46.6,98,79,44,30.01,29.63,12,3,0,0.00
2013-5-25,77.5,59.9,43.0,57.6,48.5,42.5,98,70,36,30.11,29.97,5,1,0,0.00
2013-5-26,74.3,60.1,51.1,59.1,52.5,47.4,98,78,50,30.12,30.01,3,0,0,0.00
2013-5-27,83.7,68.7,52.9,65.5,58.8,52.4,98,74,44,30.12,29.99,4,1,0,0.00
2013-5-28,86.7,74.2,62.6,76.5,70.1,62.0,98,88,63,30.09,29.97,4,1,0,0.00
2013-5-29,88.9,75.7,64.0,76.8,70.7,63.4,98,86,58,30.07,29.97,4,1,0,0.00
2013-5-30,91.0,76.7,63.9,78.6,70.8,63.3,98,85,53,30.10,29.99,4,1,0,0.00
2013-5-31,91.2,78.5,66.9,80.0,73.9,66.3,98,87,58,30.06,29.92,4,1,0,0.00
2013-6-1,90.0,78.7,67.6,81.6,73.5,67.0,98,86,53,29.97,29.85,7,1,0,0.00
2013-6-2,91.6,78.4,68.0,82.0,74.1,67.4,98,88,58,29.89,29.72,7,2,0,0.00
2013-6-3,88.5,75.5,68.0,86.2,74.7,67.4,98,98,90,29.79,29.65,3,1,0,0.39
2013-6-4,84.6,72.9,65.7,75.7,70.2,65.1,98,92,66,29.92,29.75,4,1,0,0.01
2013-6-5,82.9,73.8,64.6,74.5,67.3,64.0,98,82,57,29.97,29.83,4,1,0,0.00
2013-6-6,78.3,71.9,66.2,77.7,71.2,65.6,98,98,87,29.86,29.66,4,2,0,0.23
2013-6-8,89.1,79.1,71.6,84.3,76.9,71.0,98,93,74,29.92,29.80,4,0,0,0.00
2013-6-9,88.5,77.7,69.1,86.3,76.7,68.5,98,97,84,29.99,29.89,4,0,0,0.20
2013-6-10,83.7,75.7,72.1,83.1,75.1,71.5,98,98,98,29.94,29.74,4,1,0,0.68
2013-6-11,87.1,77.5,70.3,83.2,74.6,69.7,98,92,68,29.78,29.72,7,2,0,0.00
2013-6-12,91.9,79.5,66.2,86.1,77.6,65.6,98,94,74,29.81,29.68,6,1,0,0.00
2013-6-13,96.1,81.0,69.1,90.2,77.5,68.5,98,91,57,29.69,29.43,14,2,0,0.26
2013-6-14,83.8,72.6,62.6,73.7,66.7,62.0,98,84,56,29.83,29.55,7,2,0,0.01
2013-6-15,86.7,73.9,60.1,74.7,67.7,59.5,98,83,54,29.95,29.84,5,1,0,0.00
2013-6-16,89.2,76.5,63.7,80.1,72.9,63.1,98,90,66,29.97,29.82,6,2,0,0.00
2013-6-17,90.5,77.8,69.6,85.6,76.5,69.0,98,96,72,29.87,29.76,5,1,0,0.00
2013-6-18,86.4,75.7,69.6,85.8,75.1,69.0,98,98,98,29.80,29.58,7,1,0,1.33
2013-6-19,83.1,74.3,66.7,80.7,73.6,66.1,98,98,89,29.94,29.69,5,1,0,0.00
2013-6-20,85.1,74.6,64.9,75.7,69.5,64.3,98,86,63,30.07,29.94,5,1,0,0.00
2013-6-21,88.2,73.7,59.0,75.3,66.3,58.4,98,80,47,30.09,30.01,4,1,0,0.00
2013-6-22,83.1,74.4,70.0,82.5,73.8,69.4,98,98,98,30.03,29.93,4,1,0,0.00
2013-6-23,88.5,76.6,69.3,86.3,76.0,68.7,98,98,91,30.05,29.95,3,0,0,0.36
2013-6-24,87.8,78.3,71.8,87.2,77.7,71.2,98,98,98,30.04,29.92,3,1,0,0.01
2013-6-25,90.3,77.6,70.2,89.2,76.8,69.6,98,98,81,29.96,29.84,7,1,0,0.00
2013-6-26,91.2,77.9,69.6,88.8,77.1,69.0,98,97,86,29.87,29.73,7,1,0,0.18
2013-6-27,91.9,78.1,68.7,89.9,77.3,68.1,98,98,84,29.75,29.55,4,2,0,0.01
2013-6-28,93.0,79.7,71.6,88.4,77.4,71.0,98,93,74,29.58,29.41,9,2,0,1.85
2013-6-29,87.8,77.1,69.8,87.2,76.5,69.2,98,98,98,29.55,29.43,5,1,0,0.68
2013-6-30,87.1,77.1,71.2,86.5,76.5,70.6,98,98,98,29.69,29.53,6,1,0,0.41
2013-7-1,84.2,76.1,71.6,83.6,75.5,71.0,98,98,98,29.82,29.66,3,1,0,0.61
2013-7-2,78.3,74.2,72.0,77.7,73.6,71.4,98,98,98,30.01,29.82,3,0,0,0.80
2013-7-3,85.5,78.3,73.2,84.9,77.7,72.6,98,98,98,30.07,29.99,3,1,0,0.45
2013-7-4,90.5,80.7,72.9,88.5,80.0,72.3,98,98,93,30.11,30.01,4,1,0,0.00
2013-7-5,91.4,81.1,73.0,90.8,80.5,72.4,98,98,98,30.12,29.98,3,1,0,0.00
2013-7-6,88.0,79.3,73.6,87.4,78.7,73.0,98,98,98,30.09,29.95,3,1,0,0.18
2013-7-7,91.0,80.2,70.3,90.4,79.6,69.7,98,98,98,30.03,29.89,5,1,0,0.00
2013-7-8,89.4,79.5,72.3,88.8,78.9,71.7,98,98,98,30.01,29.93,4,1,0,0.00
2013-7-9,89.2,77.8,72.1,88.6,77.2,71.5,98,98,98,30.00,29.89,3,1,0,0.00
2013-7-10,88.2,78.2,73.0,87.6,77.6,72.4,98,98,98,29.94,29.78,4,1,0,0.07
2013-7-11,84.4,76.1,72.7,83.8,75.5,72.1,98,98,98,29.81,29.70,4,1,0,0.44
2013-7-12,80.1,73.8,71.4,79.5,73.2,70.8,98,98,98,29.84,29.69,4,0,0,0.18
2013-7-13,80.8,74.4,71.1,80.2,73.8,70.5,98,98,98,30.00,29.83,4,1,0,0.28
2013-7-14,91.4,78.9,70.9,90.8,78.3,70.3,98,98,98,30.13,30.00,3,0,0,0.01
2013-7-15,93.2,80.2,70.5,89.7,79.4,69.9,98,97,84,30.15,30.07,3,0,0,0.00
2013-7-16,80.8,73.8,71.4,80.2,73.2,70.8,98,98,98,30.10,30.02,6,0,0,0.12
2013-7-17,94.6,84.0,75.0,92.0,82.7,74.4,98,96,82,30.06,29.93,3,0,0,0.01
2013-7-18,95.4,83.5,75.4,93.0,82.8,74.8,98,98,89,29.97,29.86,3,0,0,0.00
2013-7-19,92.5,82.7,75.0,91.2,82.1,74.4,98,98,92,29.94,29.81,4,1,0,0.00
2013-7-20,90.9,80.9,74.8,90.3,80.3,74.2,98,98,98,29.87,29.75,6,1,0,0.00
2013-7-21,90.3,79.3,72.9,89.7,78.7,72.3,98,98,98,29.82,29.73,4,1,0,0.07
2013-7-22,91.8,79.1,72.1,91.2,78.5,71.5,98,98,98,29.78,29.65,5,1,0,0.00
2013-7-23,92.5,81.4,73.9,89.9,80.6,73.3,98,97,88,29.68,29.54,6,2,0,0.00
2013-7-24,97.0,82.3,71.6,88.7,80.5,71.0,98,95,76,29.67,29.54,4,1,0,0.04
2013-7-25,86.2,74.9,69.4,85.6,74.3,68.8,98,98,98,29.86,29.64,4,1,0,0.03
2013-7-26,89.4,75.5,63.3,82.1,73.5,62.7,98,94,78,29.93,29.84,3,0,0,0.00
2013-7-27,88.0,75.9,68.2,87.4,75.1,67.6,98,98,90,29.88,29.76,5,0,0,0.30
2013-7-28,91.6,78.7,70.3,87.7,77.7,69.7,98,97,85,29.83,29.75,5,1,0,0.01
2013-7-29,90.1,78.0,70.3,84.1,76.6,69.7,98,96,79,29.98,29.81,4,1,0,0.02
2013-7-30,91.0,77.1,64.8,84.0,74.9,64.2,98,93,75,30.05,29.96,4,0,0,0.00
2013-7-31,84.9,78.1,71.6,84.3,77.4,71.0,98,98,98,29.97,29.83,3,0,0,0.18
2013-8-1,86.0,76.0,71.1,85.4,75.4,70.5,98,98,98,29.84,29.69,4,1,0,0.23
2013-8-2,92.8,79.1,68.2,88.9,77.8,67.6,98,96,82,29.84,29.72,4,1,0,0.01
2013-8-3,90.9,79.7,72.5,89.9,79.0,71.9,98,98,92,29.85,29.72,3,1,0,0.63
2013-8-4,87.3,76.6,67.8,84.2,75.4,67.2,98,96,81,29.85,29.71,6,1,0,0.01
2013-8-5,85.6,74.7,65.1,80.5,72.8,64.5,98,94,82,29.92,29.82,4,0,0,0.00
2013-8-6,84.6,75.2,68.0,84.0,74.6,67.4,98,98,95,29.88,29.82,7,1,0,0.32
2013-8-7,89.4,78.0,69.1,85.9,77.2,68.5,98,97,89,29.93,29.85,3,0,0,0.00
2013-8-8,92.3,81.0,71.4,89.6,79.9,70.8,98,97,90,29.90,29.82,5,1,0,0.00
2013-8-9,93.0,82.3,74.5,91.8,81.6,73.9,98,98,91,29.88,29.81,6,1,0,0.00
2013-8-10,95.4,81.3,74.3,93.7,80.6,73.7,98,98,92,29.92,29.82,6,1,0,0.10
2013-8-11,95.0,81.8,72.7,92.9,80.8,72.1,98,97,88,29.94,29.83,5,1,0,0.01
2013-8-12,96.6,83.7,75.2,89.9,81.8,74.6,98,94,77,29.87,29.75,5,1,0,0.00
2013-8-13,91.0,79.9,72.1,90.4,79.3,71.5,98,98,98,29.78,29.60,6,1,0,0.44
2013-8-14,78.4,73.2,64.2,77.8,72.6,63.6,98,98,98,29.91,29.64,5,2,0,0.00
2013-8-15,80.2,67.3,60.4,76.1,66.2,59.8,98,96,84,29.99,29.90,6,1,0,0.00
2013-8-16,72.9,66.9,59.9,72.3,66.3,59.3,98,98,98,30.00,29.91,3,0,0,0.00
2013-8-17,72.3,68.5,64.8,71.7,67.9,64.2,98,98,98,30.00,29.93,4,1,0,0.35
2013-8-18,84.4,74.6,69.1,83.8,74.0,68.5,98,98,98,30.03,29.93,6,1,0,0.01
2013-8-19,75.9,70.8,67.8,75.3,70.2,67.2,98,98,98,30.02,29.92,4,0,0,0.26
2013-8-20,83.7,76.1,70.0,83.1,75.5,69.4,98,98,98,30.01,29.93,2,0,0,0.00
2013-8-21,88.5,76.8,70.5,87.9,76.2,69.9,98,98,98,30.05,29.93,5,0,0,0.36
2013-8-22,91.8,79.4,71.1,90.5,78.7,70.5,98,98,89,29.97,29.81,5,1,0,0.00
2013-8-23,90.0,78.2,69.1,89.0,77.5,68.5,98,98,93,29.88,29.75,9,1,0,0.00
2013-8-24,84.4,73.6,65.1,79.9,71.2,64.5,98,93,75,30.12,29.88,9,2,0,0.00
2013-8-25,81.9,70.7,61.9,78.0,68.1,61.3,98,92,67,30.22,30.11,6,1,0,0.00
2013-8-26,88.3,70.1,56.3,78.4,66.1,55.7,98,89,58,30.14,29.94,5,0,0,0.00
2013-8-27,89.4,75.6,63.5,86.6,74.5,62.9,98,97,90,29.95,29.78,4,1,0,0.00
2013-8-28,86.2,78.3,70.5,85.6,77.7,69.9,98,98,98,29.82,29.70,3,0,0,0.00
2013-8-29,89.1,80.6,73.9,88.1,79.9,73.3,98,98,94,29.82,29.66,5,2,0,0.00
2013-8-30,92.8,77.1,66.2,83.1,73.4,65.6,98,90,57,29.89,29.76,3,0,0,0.00
2013-8-31,91.6,78.2,67.8,87.4,76.3,67.2,98,94,76,29.81,29.68,5,1,0,0.00
2013-9-1,92.7,79.2,71.6,91.4,78.5,71.0,98,98,93,29.73,29.59,7,1,0,1.63
2013-9-2,89.4,78.5,70.7,88.8,77.9,70.1,98,98,98,29.72,29.62,4,1,0,0.01
2013-9-3,90.0,79.7,72.3,89.2,79.0,71.7,98,98,96,29.76,29.62,3,1,0,0.00
2013-9-4,88.7,76.8,67.8,88.1,76.2,67.2,98,98,95,29.90,29.76,4,1,0,0.00
2013-9-5,91.8,76.9,67.5,84.3,72.5,65.9,98,89,50,29.92,29.84,6,1,0,0.00
2013-9-6,86.7,73.2,64.8,79.8,70.2,64.2,98,91,64,30.00,29.89,4,1,0,0.00
2013-9-7,87.1,72.1,59.9,77.2,69.5,59.3,98,92,71,29.96,29.79,3,0,0,0.00
2013-9-8,91.9,75.1,65.1,79.6,70.2,64.5,98,87,52,29.81,29.72,3,1,0,0.00
2013-9-9,90.0,76.8,65.1,83.6,74.6,64.5,98,93,79,29.97,29.81,3,0,0,0.00
2013-9-10,94.6,78.8,68.4,85.0,75.8,67.8,98,92,63,30.06,29.97,5,1,0,0.00
2013-9-11,90.0,77.3,67.5,87.4,75.9,66.9,98,96,76,30.04,29.91,4,0,0,0.00
2013-9-12,91.6,77.7,70.3,88.7,76.7,69.7,98,97,86,29.90,29.63,5,1,0,0.21
2013-9-13,86.5,75.7,68.9,81.1,72.0,64.2,98,89,68,29.70,29.56,5,1,0,0.00
2013-9-14,80.6,67.6,59.9,65.5,62.4,59.3,98,85,58,29.97,29.70,10,2,0,0.00
2013-9-15,81.3,68.2,55.6,75.0,65.9,55.0,98,93,75,30.07,29.93,3,0,0,0.00
2013-9-16,86.7,74.8,68.0,82.5,72.1,67.4,98,92,65,30.01,29.85,8,1,0,0.40
2013-9-17,79.2,68.1,60.1,70.9,64.0,59.5,98,88,61,30.15,30.01,8,2,0,0.00
2013-9-18,75.7,61.9,51.4,68.0,59.0,50.9,98,91,64,30.14,30.00,4,1,0,0.00
2013-9-19,81.1,66.7,55.0,76.1,65.5,54.4,98,96,82,30.03,29.91,3,0,0,0.00
2013-9-20,69.6,67.1,63.7,69.0,66.5,63.1,98,98,98,29.91,29.79,3,0,0,0.02
2013-9-21,78.8,71.2,65.8,78.2,70.6,65.2,98,98,98,29.79,29.54,6,0,0,0.47
2013-9-22,79.2,68.7,60.6,77.3,68.1,60.0,98,98,94,29.72,29.52,8,2,0,0.79
2013-9-23,73.8,63.1,54.9,71.6,61.9,54.3,98,96,86,29.90,29.73,3,1,0,0.00
2013-9-24,78.4,64.0,54.5,76.2,63.2,53.9,98,97,88,29.93,29.77,3,0,0,0.00
2013-9-25,74.5,64.7,54.9,73.9,64.1,54.3,98,98,98,29.79,29.69,2,0,0,0.00
2013-9-26,78.8,66.9,58.6,74.6,65.5,58.0,98,96,79,29.86,29.69,5,1,0,0.00
2013-9-27,75.6,64.0,55.2,75.0,63.4,54.6,98,98,97,30.01,29.86,6,1,0,0.00
2013-9-28,75.9,62.2,53.4,72.7,61.5,52.8,98,98,90,30.08,29.98,6,1,0,0.00
2013-9-29,75.0,62.3,53.6,71.0,61.2,53.0,98,96,84,30.00,29.86,6,1,0,0.00
2013-9-30,78.4,63.3,54.5,74.2,61.9,53.9,98,96,78,29.93,29.82,4,0,0,0.00
2013-10-1,85.3,66.1,53.2,79.2,64.9,52.6,98,96,78,29.96,29.85,3,0,0,0.00
2013-10-2,87.4,70.4,59.5,79.9,68.3,58.9,98,94,69,29.97,29.87,3,1,0,0.00
2013-10-3,87.1,72.3,61.5,82.4,70.9,60.9,98,96,83,29.96,29.88,4,0,0,0.00
2013-10-4,88.3,73.5,63.3,84.3,72.3,62.7,98,96,83,29.96,29.86,3,0,0,0.00
2013-10-5,90.1,75.0,63.0,85.8,73.4,62.4,98,95,77,29.94,29.85,3,0,0,0.00
2013-10-6,85.1,73.9,65.5,84.5,73.3,64.9,98,98,98,29.89,29.75,5,1,0,0.00
2013-10-7,74.8,71.8,64.9,74.2,71.2,64.3,98,98,98,29.80,29.67,5,1,0,0.47
2013-10-8,64.9,60.3,57.9,64.3,59.7,57.3,98,98,98,30.02,29.79,9,3,0,0.00
2013-10-9,63.1,58.8,55.2,62.5,58.2,54.6,98,98,98,30.00,29.91,11,3,0,0.07
2013-10-10,61.3,57.6,54.3,60.7,57.0,53.7,98,98,98,29.90,29.76,7,3,0,0.16
2013-10-11,70.2,63.3,59.7,69.6,62.7,59.1,98,98,98,29.80,29.73,6,1,0,0.02
2013-10-12,69.8,65.0,61.5,69.2,64.4,60.9,98,98,98,29.90,29.78,4,1,0,0.00
2013-10-13,68.7,65.1,63.0,68.1,64.5,62.4,98,98,98,30.01,29.89,7,2,0,0.06
2013-10-14,66.4,62.9,57.7,65.8,62.3,57.1,98,98,98,30.06,29.99,6,2,0,0.15
2013-10-15,73.2,63.1,54.9,72.6,62.5,54.3,98,98,98,30.02,29.88,4,1,0,0.00
2013-10-16,71.1,65.7,62.1,70.5,65.1,61.5,98,98,98,29.89,29.78,2,0,0,0.00
2013-10-17,77.4,67.9,60.6,76.8,67.3,60.0,98,98,98,29.79,29.67,5,1,0,0.00
2013-10-18,70.9,63.8,57.4,70.3,63.2,56.8,98,98,98,29.87,29.70,5,1,0,0.00
2013-10-19,72.0,64.6,60.4,71.4,64.0,59.8,98,98,98,29.80,29.65,3,0,0,0.01
2013-10-20,68.9,56.2,46.4,62.1,55.1,45.9,98,96,79,29.95,29.72,6,1,0,0.00
2013-10-21,69.8,54.6,42.1,65.2,53.3,41.6,98,96,84,30.00,29.84,3,0,0,0.00
2013-10-22,64.9,58.3,53.1,64.3,57.7,52.5,98,98,98,29.85,29.64,3,0,0,0.00
2013-10-23,68.2,59.6,47.7,65.8,55.2,43.7,98,87,56,29.83,29.52,9,2,0,0.00
2013-10-24,60.6,48.0,37.8,48.6,44.4,37.3,98,88,62,30.01,29.83,7,2,0,0.00
2013-10-25,58.3,46.8,39.0,46.3,41.5,37.1,98,84,51,30.20,30.01,8,2,0,0.00
2013-10-26,61.3,45.2,30.7,46.6,40.1,30.2,98,85,54,30.20,29.91,5,1,0,0.00
2013-10-27,69.4,53.8,41.2,57.1,50.1,40.7,98,89,61,29.96,29.88,6,1,0,0.00
2013-10-28,69.1,56.7,46.6,68.5,56.1,46.1,98,98,98,30.09,29.95,3,0,0,0.00
2013-10-29,71.8,59.2,50.5,71.2,58.6,50.0,98,98,98,30.18,30.08,3,0,0,0.00
2013-10-30,73.9,62.5,53.6,73.3,61.9,53.0,98,98,98,30.14,30.00,4,0,0,0.00
2013-10-31,75.4,65.2,55.9,74.8,64.6,55.3,98,98,98,30.03,29.77,5,1,0,0.00
2013-11-1,73.0,68.3,62.6,72.4,67.7,62.0,98,98,98,29.76,29.50,6,2,0,1.49
2013-11-2,71.4,62.0,54.0,66.2,60.1,53.4,98,94,72,29.75,29.52,5,1,0,0.00
2013-11-3,64.8,51.6,43.7,53.9,48.6,43.2,98,91,62,30.20,29.75,7,2,0,0.00
2013-11-4,57.0,46.1,37.8,50.6,42.8,37.3,98,89,61,30.39,30.20,6,2,0,0.00
2013-11-5,60.8,49.2,38.3,60.2,48.6,37.8,98,98,98,30.38,30.26,5,2,0,0.00
2013-11-6,71.6,57.7,46.0,71.0,57.2,45.5,98,98,98,30.26,29.95,4,1,0,0.00
2013-11-7,70.3,61.1,45.7,69.7,60.2,45.2,98,97,85,29.95,29.75,7,2,0,0.08
2013-11-8,58.8,47.0,35.8,45.0,38.7,34.3,98,76,42,30.15,29.93,7,1,0,0.00
2013-11-9,58.6,46.3,32.5,48.7,41.0,32.0,98,83,52,30.20,30.02,6,1,0,0.00
2013-11-10,72.7,55.2,41.7,56.7,44.7,35.0,98,72,33,30.06,29.89,5,2,0,0.00
2013-11-11,60.8,46.5,34.0,42.0,37.4,32.6,98,74,40,30.19,29.98,5,1,0,0.00
2013-11-12,61.3,44.2,34.7,50.8,40.3,25.6,98,87,57,30.25,29.88,7,2,0,0.01
2013-11-13,45.7,33.9,25.2,28.6,23.9,18.2,98,70,33,30.37,30.25,6,2,0,0.00
2013-11-14,58.1,39.4,26.6,35.0,27.3,19.0,98,69,23,30.32,30.16,6,1,0,0.00
2013-11-15,63.0,47.8,32.4,57.0,43.6,28.8,98,86,62,30.20,30.04,3,0,0,0.00
2013-11-16,70.9,58.3,50.7,70.3,57.8,50.2,98,98,98,30.10,30.03,5,1,0,0.01
2013-11-17,72.1,62.9,53.4,71.5,62.3,52.8,98,98,98,30.04,29.74,3,0,0,0.09
2013-11-18,75.7,66.6,54.9,74.4,62.5,39.5,98,88,54,29.78,29.62,5,2,0,0.03
2013-11-19,56.8,48.9,43.0,39.7,36.1,34.6,74,62,48,30.14,29.78,7,2,0,0.00
2013-11-20,53.4,44.9,37.8,45.5,39.0,33.1,98,80,68,30.28,30.14,6,3,0,0.00
2013-11-21,63.5,50.5,42.1,62.9,50.0,41.6,98,98,98,30.33,30.22,5,1,0,0.00
2013-11-22,71.6,59.8,47.3,71.0,59.2,46.8,98,98,98,30.23,29.92,4,1,0,0.04
2013-11-23,61.9,56.2,43.0,61.3,52.3,28.7,98,88,53,30.00,29.86,8,2,0,0.06
2013-11-24,42.3,32.9,25.0,29.8,5.5,-56.1,63,39,1,30.37,30.00,9,3,0,0.00
2013-11-25,44.1,31.5,19.9,18.3,6.5,-52.6,90,46,1,30.42,30.20,3,0,0,0.00
2013-11-26,66.6,47.7,36.5,66.0,41.0,15.2,98,80,41,30.20,29.39,7,2,0,0.77
2013-11-27,57.4,40.8,29.7,56.8,39.9,24.9,98,96,82,29.99,29.32,8,3,0,1.36
2013-11-28,45.0,32.1,23.4,29.3,25.2,21.7,98,78,46,30.32,30.00,8,1,0,0.01
2013-11-29,51.6,36.7,25.2,35.5,29.2,24.7,98,77,47,30.46,30.31,6,2,0,0.00
2013-11-30,50.7,37.0,27.5,42.0,34.6,27.0,98,92,70,30.48,30.20,7,2,0,0.00
2013-12-1,59.7,44.5,28.9,47.9,40.4,28.4,98,87,56,30.19,29.85,4,0,0,0.00
2013-12-2,62.4,47.3,39.2,56.1,45.7,38.7,98,95,71,29.85,29.65,3,0,0,0.00
2013-12-3,59.2,47.7,35.8,57.5,47.0,35.3,98,98,91,29.83,29.70,3,0,0,0.00
2013-12-4,65.8,57.2,52.5,65.2,56.6,52.0,98,98,98,29.93,29.82,2,0,0,0.00
2013-12-5,67.6,62.2,54.0,67.0,61.6,53.4,98,98,98,29.98,29.88,6,1,0,0.01
2013-12-6,78.3,69.9,64.4,77.7,69.3,63.8,98,98,98,29.92,29.81,11,3,0,0.00
2013-12-7,68.7,50.1,42.8,68.1,49.6,42.3,98,98,98,30.28,29.83,10,4,0,0.23
2013-12-8,42.6,36.3,33.8,41.8,35.3,33.3,98,96,88,30.29,30.12,6,3,0,0.12
2013-12-9,47.1,41.1,35.1,46.6,40.6,34.6,98,98,98,30.12,29.89,4,0,0,0.36
2013-12-10,48.2,44.2,30.6,47.7,43.6,30.1,98,98,87,30.16,29.75,7,1,0,0.71
2013-12-11,49.1,35.8,25.7,33.1,26.6,19.8,98,73,34,30.31,30.12,5,1,0,0.00
2013-12-12,45.0,35.2,26.8,32.8,13.6,-52.1,98,57,1,30.25,30.11,6,1,0,0.00
2013-12-13,51.8,36.7,25.0,27.4,14.0,-47.1,98,55,1,30.23,30.10,4,1,0,0.00
2013-12-14,47.7,42.4,39.2,45.0,35.6,24.4,98,79,44,30.13,29.60,6,2,0,0.97
2013-12-15,54.5,44.0,34.3,51.3,39.1,28.5,98,84,58,29.90,29.54,5,2,0,0.04
2013-12-16,55.6,41.1,29.8,40.9,34.6,29.3,98,80,45,30.01,29.90,4,1,0,0.00
2013-12-17,61.5,48.0,34.7,41.8,38.1,34.2,98,72,39,29.95,29.71,5,2,0,0.00
2013-12-18,50.2,40.7,32.5,40.4,5.1,-50.3,91,36,1,30.12,29.86,6,2,0,0.00
2013-12-19,61.9,45.5,32.7,25.7,7.3,-45.7,57,33,1,30.16,30.05,5,2,0,0.00
2013-12-20,66.6,54.0,44.8,60.5,49.1,26.4,98,85,46,30.08,29.96,6,1,0,0.00
2013-12-21,73.0,61.1,49.8,71.9,60.4,49.3,98,98,93,29.99,29.88,5,1,0,0.00
2013-12-22,77.9,70.5,64.4,77.3,69.9,63.8,98,98,94,29.93,29.84,9,3,0,0.13
2013-12-23,68.5,61.2,46.4,67.9,60.6,45.9,98,98,98,29.97,29.81,6,2,0,1.80
2013-12-24,47.5,41.3,29.1,45.9,27.4,-1.3,98,64,24,30.28,29.94,8,3,0,0.00
2013-12-25,42.1,29.8,23.9,23.8,-20.3,-59.8,94,22,1,30.38,30.22,5,1,0,0.00
2013-12-26,51.4,37.2,26.2,40.1,30.0,19.2,98,78,32,30.22,30.07,3,1,0,0.08
2013-12-27,52.7,38.4,30.2,21.8,-0.7,-52.2,68,35,1,30.29,30.18,3,1,0,0.00
2013-12-28,58.6,42.8,28.0,36.0,7.4,-45.8,98,49,1,30.24,29.98,3,0,0,0.00
2013-12-29,63.1,50.4,44.1,62.5,48.2,20.3,98,94,33,29.97,29.52,6,2,0,2.19
2013-12-30,55.2,46.1,37.4,50.4,42.1,36.9,98,87,53,29.96,29.75,4,1,0,0.01
2013-12-31,50.4,42.5,33.8,42.5,15.1,-51.7,98,53,1,30.19,29.93,7,2,0,0.00
2014-1-1,51.3,40.6,32.2,32.6,0.4,-50.8,98,42,1,30.26,29.98,4,1,0,0.00
2014-1-2,49.8,44.5,39.7,49.3,37.1,21.5,98,77,43,29.98,29.39,5,1,0,0.33